Champlin, MN (55316)

10:54 AM CST on January 25, 2015 (GMT -0600)
Champlin MN | Change Station
CLOSE
Current Station
Personal Weather Station
Location: Champlin, MN
Elevation: 879 ft
Nearby Weather Stations

Elev 879 ft 45.16 °N, 93.38 °W | Updated 9 seconds ago

Overcast
Overcast
24.3 °F
Feels Like 19 °F
N
4.5
Wind Variable Wind from NNE
Gusts 45.1 mph

Today
High -- | Low -- °F
--% Chance of Precip.
Yesterday
High -- | Low -- °F
Precip. -- in
7:41 AM 5:10 PM
Waxing Crescent, 34% visible
Pressure 30.04 in
Visibility 10.0 miles
Clouds Overcast 11000 ft
Windchill 19 °F
Dew Point 12 °F
Humidity 60%
Rainfall 0.05 in
Snow Depth Not available.
UV 0 out of 12
Pollen .10 out of 12
Air Quality Not available.
Flu Activity Not available.
METAR KMIC 251553Z 07008KT 10SM OVC110 M06/M12 A3000 RMK AO2 SLP170 T10611117

More Conditions Fewer Conditions

Pressure 30.04 in
Visibility 10.0 miles
Clouds Overcast 11000 ft
Windchill 19 °F
Dew Point 12 °F
Humidity 60%
Rainfall 0.05 in
Snow Depth Not available.
UV 0 out of 12
Pollen .10 out of 12
Air Quality Not available.
Flu Activity Not available.
METAR KMIC 251553Z 07008KT 10SM OVC110 M06/M12 A3000 RMK AO2 SLP170 T10611117

More Conditions Fewer Conditions

10-Day Weather Forecast

Almanac

Astronomy

Jan. 25, 2015 Rise Set
Actual Time
Civil Twilight
Nautical Twilight
Astronomical Twilight
Moon
Length of Visible Light
Length of Day
Tomorrow will be .
, % of the Moon is Illuminated

Today's Extremes

State Highs State Lows

Community

WunderPhotos

Upload Photos

1,789,963 photos uploaded!

WunderBlogs® & News

Nearby

Air Quality

  Air Quality AQ Index Pollutant
Not available.

Snow Depth

Station Depth Elevation

Earthquake Activity

City Distance Mag. Time & Date
Minimum magnitude displayed is 2.5.

Coastal Water Temperatures

Place Temperature

Nearby Weather Stations